sensor_id;sensor_type;location;lat;lon;timestamp;pressure;altitude;pressure_sealevel;temperature;humidity
74327;BME280;62745;51.060;13.786;2023-08-31T00:01:06;99275.22;;;14.84;100.00
74327;BME280;62745;51.060;13.786;2023-08-31T00:03:31;99266.97;;;14.91;100.00
74327;BME280;62745;51.060;13.786;2023-08-31T00:05:57;99271.03;;;14.93;100.00
74327;BME280;62745;51.060;13.786;2023-08-31T00:08:22;99272.66;;;14.94;100.00
74327;BME280;62745;51.060;13.786;2023-08-31T00:10:57;99275.63;;;14.93;100.00
74327;BME280;62745;51.060;13.786;2023-08-31T00:13:22;99280.09;;;15.04;100.00
74327;BME280;62745;51.060;13.786;2023-08-31T00:15:48;99300.00;;;15.03;100.00
74327;BME280;62745;51.060;13.786;2023-08-31T00:18:13;99295.34;;;14.98;100.00
74327;BME280;62745;51.060;13.786;2023-08-31T00:20:41;99304.72;;;14.96;100.00
74327;BME280;62745;51.060;13.786;2023-08-31T00:23:06;99307.75;;;14.99;100.00
74327;BME280;62745;51.060;13.786;2023-08-31T00:25:32;99305.06;;;14.99;100.00
74327;BME280;62745;51.060;13.786;2023-08-31T00:27:57;99324.50;;;14.90;100.00
74327;BME280;62745;51.060;13.786;2023-08-31T00:30:23;99323.13;;;15.04;100.00
74327;BME280;62745;51.060;13.786;2023-08-31T00:32:53;99315.16;;;15.09;100.00
74327;BME280;62745;51.060;13.786;2023-08-31T00:35:18;99321.34;;;15.10;100.00
74327;BME280;62745;51.060;13.786;2023-08-31T00:37:43;99315.56;;;15.18;100.00
74327;BME280;62745;51.060;13.786;2023-08-31T00:40:09;99325.19;;;15.47;100.00
74327;BME280;62745;51.060;13.786;2023-08-31T00:42:36;99333.81;;;15.49;100.00
74327;BME280;62745;51.060;13.786;2023-08-31T00:45:02;99329.50;;;15.65;100.00
74327;BME280;62745;51.060;13.786;2023-08-31T00:47:28;99330.31;;;15.66;100.00
74327;BME280;62745;51.060;13.786;2023-08-31T00:49:53;99336.25;;;15.68;100.00
74327;BME280;62745;51.060;13.786;2023-08-31T00:52:19;99327.63;;;15.66;100.00
74327;BME280;62745;51.060;13.786;2023-08-31T00:54:46;99328.34;;;15.61;100.00
74327;BME280;62745;51.060;13.786;2023-08-31T00:57:12;99333.31;;;15.52;100.00
74327;BME280;62745;51.060;13.786;2023-08-31T00:59:37;99325.75;;;15.49;100.00
74327;BME280;62745;51.060;13.786;2023-08-31T01:02:08;99322.13;;;15.44;100.00
74327;BME280;62745;51.060;13.786;2023-08-31T01:04:44;99320.59;;;15.48;100.00
74327;BME280;62745;51.060;13.786;2023-08-31T01:10:02;99320.13;;;15.34;100.00
74327;BME280;62745;51.060;13.786;2023-08-31T01:12:37;99322.50;;;15.30;100.00
74327;BME280;62745;51.060;13.786;2023-08-31T01:15:10;99316.44;;;15.23;100.00
74327;BME280;62745;51.060;13.786;2023-08-31T01:17:50;99320.53;;;15.26;100.00
74327;BME280;62745;51.060;13.786;2023-08-31T01:20:19;99321.50;;;15.20;100.00
74327;BME280;62745;51.060;13.786;2023-08-31T01:22:55;99306.19;;;15.20;100.00
74327;BME280;62745;51.060;13.786;2023-08-31T01:25:21;99311.97;;;15.29;100.00
74327;BME280;62745;51.060;13.786;2023-08-31T01:27:46;99303.81;;;15.24;100.00
74327;BME280;62745;51.060;13.786;2023-08-31T01:30:12;99303.00;;;15.23;100.00
74327;BME280;62745;51.060;13.786;2023-08-31T01:32:37;99306.59;;;15.29;100.00
74327;BME280;62745;51.060;13.786;2023-08-31T01:35:10;99295.66;;;15.35;100.00
74327;BME280;62745;51.060;13.786;2023-08-31T01:38:00;99300.78;;;15.37;100.00
74327;BME280;62745;51.060;13.786;2023-08-31T01:40:35;99298.34;;;15.35;100.00
74327;BME280;62745;51.060;13.786;2023-08-31T01:43:02;99302.16;;;15.40;100.00
74327;BME280;62745;51.060;13.786;2023-08-31T01:45:29;99310.00;;;15.41;100.00
74327;BME280;62745;51.060;13.786;2023-08-31T01:47:55;99318.56;;;15.38;100.00
74327;BME280;62745;51.060;13.786;2023-08-31T01:50:21;99314.16;;;15.49;100.00
74327;BME280;62745;51.060;13.786;2023-08-31T01:52:46;99314.16;;;15.49;100.00
74327;BME280;62745;51.060;13.786;2023-08-31T01:55:12;99309.19;;;15.41;100.00
74327;BME280;62745;51.060;13.786;2023-08-31T01:57:40;99319.94;;;15.41;100.00
74327;BME280;62745;51.060;13.786;2023-08-31T02:00:08;99326.97;;;15.42;100.00
74327;BME280;62745;51.060;13.786;2023-08-31T02:02:34;99333.09;;;15.37;100.00
74327;BME280;62745;51.060;13.786;2023-08-31T02:05:00;99323.94;;;15.38;100.00
74327;BME280;62745;51.060;13.786;2023-08-31T02:07:27;99331.53;;;15.41;100.00
74327;BME280;62745;51.060;13.786;2023-08-31T02:09:52;99333.72;;;15.44;100.00
74327;BME280;62745;51.060;13.786;2023-08-31T02:12:17;99331.84;;;15.45;100.00
74327;BME280;62745;51.060;13.786;2023-08-31T02:14:43;99326.06;;;15.36;100.00
74327;BME280;62745;51.060;13.786;2023-08-31T02:17:08;99332.03;;;15.38;100.00
74327;BME280;62745;51.060;13.786;2023-08-31T02:19:34;99344.97;;;15.41;100.00
74327;BME280;62745;51.060;13.786;2023-08-31T02:21:59;99340.66;;;15.40;100.00
74327;BME280;62745;51.060;13.786;2023-08-31T02:24:24;99335.22;;;15.35;100.00
74327;BME280;62745;51.060;13.786;2023-08-31T02:26:50;99343.22;;;15.30;100.00
74327;BME280;62745;51.060;13.786;2023-08-31T02:29:15;99343.13;;;15.25;100.00
74327;BME280;62745;51.060;13.786;2023-08-31T02:31:40;99336.59;;;15.21;100.00
74327;BME280;62745;51.060;13.786;2023-08-31T02:34:07;99345.66;;;15.15;100.00
74327;BME280;62745;51.060;13.786;2023-08-31T02:36:32;99349.16;;;15.15;100.00
74327;BME280;62745;51.060;13.786;2023-08-31T02:41:24;99352.31;;;14.95;100.00
74327;BME280;62745;51.060;13.786;2023-08-31T04:36:25;99445.31;;;14.28;100.00
74327;BME280;62745;51.060;13.786;2023-08-31T04:38:52;99448.59;;;14.18;100.00
74327;BME280;62745;51.060;13.786;2023-08-31T04:41:25;99450.00;;;14.21;100.00
74327;BME280;62745;51.060;13.786;2023-08-31T04:43:50;99453.16;;;14.18;100.00
74327;BME280;62745;51.060;13.786;2023-08-31T04:46:16;99453.00;;;14.24;100.00
74327;BME280;62745;51.060;13.786;2023-08-31T04:48:42;99451.53;;;14.17;100.00
74327;BME280;62745;51.060;13.786;2023-08-31T04:51:26;99460.84;;;14.26;100.00
74327;BME280;62745;51.060;13.786;2023-08-31T04:53:54;99458.28;;;14.19;100.00
74327;BME280;62745;51.060;13.786;2023-08-31T04:56:19;99467.25;;;14.25;100.00
74327;BME280;62745;51.060;13.786;2023-08-31T04:58:45;99464.94;;;14.17;100.00
74327;BME280;62745;51.060;13.786;2023-08-31T05:01:11;99475.09;;;14.26;100.00
74327;BME280;62745;51.060;13.786;2023-08-31T05:03:36;99480.81;;;14.18;100.00
74327;BME280;62745;51.060;13.786;2023-08-31T05:06:07;99487.00;;;14.19;100.00
74327;BME280;62745;51.060;13.786;2023-08-31T05:08:47;99474.88;;;14.04;100.00
74327;BME280;62745;51.060;13.786;2023-08-31T05:11:13;99486.44;;;14.17;100.00
74327;BME280;62745;51.060;13.786;2023-08-31T05:13:38;99496.72;;;14.31;100.00
74327;BME280;62745;51.060;13.786;2023-08-31T05:16:03;99504.16;;;14.41;100.00
74327;BME280;62745;51.060;13.786;2023-08-31T05:18:29;99506.19;;;14.46;100.00
74327;BME280;62745;51.060;13.786;2023-08-31T05:20:54;99505.97;;;14.47;100.00
74327;BME280;62745;51.060;13.786;2023-08-31T05:23:19;99511.53;;;14.57;100.00
74327;BME280;62745;51.060;13.786;2023-08-31T05:25:45;99516.34;;;14.55;100.00
74327;BME280;62745;51.060;13.786;2023-08-31T05:28:10;99519.94;;;14.61;100.00
74327;BME280;62745;51.060;13.786;2023-08-31T05:30:36;99532.94;;;14.52;100.00
74327;BME280;62745;51.060;13.786;2023-08-31T05:33:01;99525.22;;;14.56;100.00
74327;BME280;62745;51.060;13.786;2023-08-31T05:35:27;99534.00;;;14.51;100.00
74327;BME280;62745;51.060;13.786;2023-08-31T05:37:52;99527.56;;;14.64;100.00
74327;BME280;62745;51.060;13.786;2023-08-31T05:40:17;99540.63;;;14.60;100.00
74327;BME280;62745;51.060;13.786;2023-08-31T05:42:43;99530.47;;;14.62;100.00
74327;BME280;62745;51.060;13.786;2023-08-31T05:45:09;99511.78;;;14.56;100.00
74327;BME280;62745;51.060;13.786;2023-08-31T05:47:34;99532.94;;;14.64;100.00
74327;BME280;62745;51.060;13.786;2023-08-31T05:50:00;99544.13;;;14.72;100.00
74327;BME280;62745;51.060;13.786;2023-08-31T05:52:26;99537.94;;;14.60;100.00
74327;BME280;62745;51.060;13.786;2023-08-31T05:54:52;99538.19;;;14.59;100.00
74327;BME280;62745;51.060;13.786;2023-08-31T05:57:22;99538.88;;;14.66;100.00
74327;BME280;62745;51.060;13.786;2023-08-31T05:59:48;99542.97;;;14.57;100.00
74327;BME280;62745;51.060;13.786;2023-08-31T06:02:13;99541.81;;;14.64;100.00
74327;BME280;62745;51.060;13.786;2023-08-31T06:04:38;99534.00;;;14.63;100.00
74327;BME280;62745;51.060;13.786;2023-08-31T06:07:04;99521.94;;;14.65;100.00
74327;BME280;62745;51.060;13.786;2023-08-31T06:09:29;99546.13;;;14.65;100.00
74327;BME280;62745;51.060;13.786;2023-08-31T06:11:54;99523.09;;;14.58;100.00
74327;BME280;62745;51.060;13.786;2023-08-31T06:14:20;99526.38;;;14.60;100.00
74327;BME280;62745;51.060;13.786;2023-08-31T06:16:45;99543.31;;;14.72;100.00
74327;BME280;62745;51.060;13.786;2023-08-31T06:19:10;99546.69;;;14.79;100.00
74327;BME280;62745;51.060;13.786;2023-08-31T06:21:35;99535.72;;;14.81;100.00
74327;BME280;62745;51.060;13.786;2023-08-31T06:24:01;99544.09;;;14.84;100.00
74327;BME280;62745;51.060;13.786;2023-08-31T06:26:26;99555.31;;;14.93;100.00
74327;BME280;62745;51.060;13.786;2023-08-31T06:28:51;99550.06;;;14.98;100.00
74327;BME280;62745;51.060;13.786;2023-08-31T06:31:16;99552.44;;;15.11;100.00
74327;BME280;62745;51.060;13.786;2023-08-31T06:33:42;99550.38;;;15.01;100.00
74327;BME280;62745;51.060;13.786;2023-08-31T06:36:07;99549.38;;;15.19;100.00
74327;BME280;62745;51.060;13.786;2023-08-31T06:38:32;99561.03;;;15.37;100.00
74327;BME280;62745;51.060;13.786;2023-08-31T06:40:58;99568.53;;;15.34;100.00
74327;BME280;62745;51.060;13.786;2023-08-31T06:43:24;99573.16;;;15.51;100.00
74327;BME280;62745;51.060;13.786;2023-08-31T06:45:52;99575.75;;;15.46;100.00
74327;BME280;62745;51.060;13.786;2023-08-31T06:48:17;99571.81;;;15.25;100.00
74327;BME280;62745;51.060;13.786;2023-08-31T06:50:42;99576.16;;;15.26;100.00
74327;BME280;62745;51.060;13.786;2023-08-31T06:53:08;99586.66;;;15.27;100.00
74327;BME280;62745;51.060;13.786;2023-08-31T06:55:33;99589.03;;;15.24;100.00
74327;BME280;62745;51.060;13.786;2023-08-31T06:57:59;99591.22;;;15.27;100.00
74327;BME280;62745;51.060;13.786;2023-08-31T07:00:24;99594.06;;;15.20;100.00
74327;BME280;62745;51.060;13.786;2023-08-31T07:02:50;99587.59;;;15.33;100.00
74327;BME280;62745;51.060;13.786;2023-08-31T07:05:15;99598.56;;;15.43;100.00
74327;BME280;62745;51.060;13.786;2023-08-31T07:07:40;99589.72;;;15.31;100.00
74327;BME280;62745;51.060;13.786;2023-08-31T07:10:06;99593.41;;;15.42;100.00
74327;BME280;62745;51.060;13.786;2023-08-31T07:12:32;99601.44;;;15.53;100.00
74327;BME280;62745;51.060;13.786;2023-08-31T07:14:57;99588.94;;;15.59;100.00
74327;BME280;62745;51.060;13.786;2023-08-31T07:17:22;99605.53;;;15.56;100.00
74327;BME280;62745;51.060;13.786;2023-08-31T07:19:48;99612.94;;;15.49;100.00
74327;BME280;62745;51.060;13.786;2023-08-31T07:22:13;99605.94;;;15.48;100.00
74327;BME280;62745;51.060;13.786;2023-08-31T07:24:38;99591.94;;;15.34;100.00
74327;BME280;62745;51.060;13.786;2023-08-31T07:27:04;99594.06;;;15.32;100.00
74327;BME280;62745;51.060;13.786;2023-08-31T07:29:30;99617.28;;;15.50;100.00
74327;BME280;62745;51.060;13.786;2023-08-31T07:31:56;99611.72;;;15.56;100.00
74327;BME280;62745;51.060;13.786;2023-08-31T07:34:21;99618.84;;;15.74;100.00
74327;BME280;62745;51.060;13.786;2023-08-31T07:36:47;99624.13;;;15.69;100.00
74327;BME280;62745;51.060;13.786;2023-08-31T07:39:12;99614.19;;;15.70;100.00
74327;BME280;62745;51.060;13.786;2023-08-31T07:41:37;99620.09;;;15.83;100.00
74327;BME280;62745;51.060;13.786;2023-08-31T07:44:03;99637.94;;;15.73;100.00
74327;BME280;62745;51.060;13.786;2023-08-31T07:46:28;99628.75;;;15.85;100.00
74327;BME280;62745;51.060;13.786;2023-08-31T07:48:53;99636.13;;;15.78;99.46
74327;BME280;62745;51.060;13.786;2023-08-31T07:51:19;99636.53;;;15.99;100.00
74327;BME280;62745;51.060;13.786;2023-08-31T07:53:49;99637.50;;;16.09;100.00
74327;BME280;62745;51.060;13.786;2023-08-31T07:56:15;99621.34;;;16.26;99.83
74327;BME280;62745;51.060;13.786;2023-08-31T07:58:40;99632.47;;;16.30;100.00
74327;BME280;62745;51.060;13.786;2023-08-31T08:01:05;99627.72;;;16.03;98.46
74327;BME280;62745;51.060;13.786;2023-08-31T08:03:31;99613.94;;;16.16;99.08
74327;BME280;62745;51.060;13.786;2023-08-31T08:05:56;99623.22;;;16.09;97.22
74327;BME280;62745;51.060;13.786;2023-08-31T08:08:22;99606.97;;;16.04;93.76
74327;BME280;62745;51.060;13.786;2023-08-31T08:10:52;99611.53;;;16.03;92.62
74327;BME280;62745;51.060;13.786;2023-08-31T08:13:17;99633.66;;;16.05;93.07
74327;BME280;62745;51.060;13.786;2023-08-31T08:15:42;99630.19;;;16.21;92.97
74327;BME280;62745;51.060;13.786;2023-08-31T08:18:08;99634.19;;;16.36;90.75
74327;BME280;62745;51.060;13.786;2023-08-31T08:20:33;99633.63;;;16.34;89.17
74327;BME280;62745;51.060;13.786;2023-08-31T08:22:58;99643.16;;;16.41;89.19
74327;BME280;62745;51.060;13.786;2023-08-31T08:25:24;99643.72;;;16.10;89.03
74327;BME280;62745;51.060;13.786;2023-08-31T08:27:50;99649.78;;;16.17;89.89
74327;BME280;62745;51.060;13.786;2023-08-31T08:30:15;99647.00;;;16.29;88.01
74327;BME280;62745;51.060;13.786;2023-08-31T08:32:41;99649.13;;;16.43;86.41
74327;BME280;62745;51.060;13.786;2023-08-31T08:35:06;99647.91;;;16.34;85.80
74327;BME280;62745;51.060;13.786;2023-08-31T08:37:32;99651.44;;;16.51;86.86
74327;BME280;62745;51.060;13.786;2023-08-31T08:42:25;99652.81;;;16.37;86.51
74327;BME280;62745;51.060;13.786;2023-08-31T08:44:51;99663.97;;;16.29;84.80
74327;BME280;62745;51.060;13.786;2023-08-31T08:47:17;99659.28;;;16.53;82.55
74327;BME280;62745;51.060;13.786;2023-08-31T08:49:43;99658.72;;;16.84;84.14
74327;BME280;62745;51.060;13.786;2023-08-31T08:52:09;99655.44;;;17.21;81.56
74327;BME280;62745;51.060;13.786;2023-08-31T08:54:35;99654.88;;;17.19;79.61
74327;BME280;62745;51.060;13.786;2023-08-31T08:57:00;99655.81;;;17.52;80.39
74327;BME280;62745;51.060;13.786;2023-08-31T08:59:26;99659.34;;;17.74;81.41
74327;BME280;62745;51.060;13.786;2023-08-31T09:01:52;99653.50;;;17.38;81.05
74327;BME280;62745;51.060;13.786;2023-08-31T09:04:18;99656.84;;;17.07;83.07
74327;BME280;62745;51.060;13.786;2023-08-31T09:06:44;99667.84;;;17.00;80.55
74327;BME280;62745;51.060;13.786;2023-08-31T09:09:10;99662.22;;;16.85;78.19
74327;BME280;62745;51.060;13.786;2023-08-31T09:11:35;99653.22;;;16.79;78.23
74327;BME280;62745;51.060;13.786;2023-08-31T09:14:13;99667.59;;;17.24;76.18
74327;BME280;62745;51.060;13.786;2023-08-31T09:16:39;99680.25;;;17.40;72.22
74327;BME280;62745;51.060;13.786;2023-08-31T09:19:17;99659.16;;;17.81;70.90
74327;BME280;62745;51.060;13.786;2023-08-31T09:21:43;99652.94;;;18.07;70.34
74327;BME280;62745;51.060;13.786;2023-08-31T09:24:10;99662.81;;;18.23;71.60
74327;BME280;62745;51.060;13.786;2023-08-31T09:26:39;99654.91;;;18.81;72.26
74327;BME280;62745;51.060;13.786;2023-08-31T09:29:07;99654.25;;;18.63;75.35
74327;BME280;62745;51.060;13.786;2023-08-31T09:31:33;99671.53;;;18.03;72.53
74327;BME280;62745;51.060;13.786;2023-08-31T09:33:58;99670.06;;;17.91;74.74
74327;BME280;62745;51.060;13.786;2023-08-31T09:36:23;99669.16;;;17.63;75.81
74327;BME280;62745;51.060;13.786;2023-08-31T09:38:49;99670.03;;;17.64;77.49
74327;BME280;62745;51.060;13.786;2023-08-31T09:41:14;99667.75;;;17.56;76.79
74327;BME280;62745;51.060;13.786;2023-08-31T09:43:41;99671.72;;;17.70;74.43
74327;BME280;62745;51.060;13.786;2023-08-31T09:46:06;99670.75;;;18.35;73.95
74327;BME280;62745;51.060;13.786;2023-08-31T09:48:34;99668.31;;;18.33;74.80
74327;BME280;62745;51.060;13.786;2023-08-31T09:51:04;99678.69;;;18.15;74.53
74327;BME280;62745;51.060;13.786;2023-08-31T09:53:30;99663.41;;;17.98;74.35
74327;BME280;62745;51.060;13.786;2023-08-31T09:55:56;99665.19;;;18.15;74.36
74327;BME280;62745;51.060;13.786;2023-08-31T09:58:22;99664.66;;;18.18;74.39
74327;BME280;62745;51.060;13.786;2023-08-31T10:00:52;99671.88;;;18.12;73.41
74327;BME280;62745;51.060;13.786;2023-08-31T10:03:18;99670.59;;;18.15;72.49
74327;BME280;62745;51.060;13.786;2023-08-31T10:05:49;99682.31;;;17.77;72.72
74327;BME280;62745;51.060;13.786;2023-08-31T10:08:15;99678.69;;;17.88;74.45
74327;BME280;62745;51.060;13.786;2023-08-31T10:10:41;99674.59;;;17.85;72.72
74327;BME280;62745;51.060;13.786;2023-08-31T10:13:06;99681.38;;;17.88;73.95
74327;BME280;62745;51.060;13.786;2023-08-31T10:15:33;99681.81;;;17.58;73.89
74327;BME280;62745;51.060;13.786;2023-08-31T10:18:00;99668.94;;;17.87;75.01
74327;BME280;62745;51.060;13.786;2023-08-31T10:20:26;99685.75;;;18.48;72.35
74327;BME280;62745;51.060;13.786;2023-08-31T10:22:56;99671.28;;;18.64;70.21
74327;BME280;62745;51.060;13.786;2023-08-31T10:25:22;99673.78;;;18.71;69.45
74327;BME280;62745;51.060;13.786;2023-08-31T10:27:48;99668.50;;;18.59;68.42
74327;BME280;62745;51.060;13.786;2023-08-31T10:38:17;99671.22;;;18.59;67.37
74327;BME280;62745;51.060;13.786;2023-08-31T10:43:50;99667.03;;;18.73;66.23
74327;BME280;62745;51.060;13.786;2023-08-31T10:51:31;99671.13;;;18.81;61.94
74327;BME280;62745;51.060;13.786;2023-08-31T10:59:16;99654.91;;;19.28;62.02
74327;BME280;62745;51.060;13.786;2023-08-31T11:02:00;99658.38;;;19.71;59.63
74327;BME280;62745;51.060;13.786;2023-08-31T11:04:28;99660.91;;;20.23;58.55
74327;BME280;62745;51.060;13.786;2023-08-31T11:07:14;99661.91;;;19.81;59.30
74327;BME280;62745;51.060;13.786;2023-08-31T11:09:40;99655.78;;;19.39;61.12
74327;BME280;62745;51.060;13.786;2023-08-31T11:12:06;99654.94;;;19.33;62.91
74327;BME280;62745;51.060;13.786;2023-08-31T11:14:32;99661.88;;;19.14;61.74
74327;BME280;62745;51.060;13.786;2023-08-31T11:16:59;99729.81;;;18.75;65.45
74327;BME280;62745;51.060;13.786;2023-08-31T11:19:25;99736.88;;;15.54;89.27
74327;BME280;62745;51.060;13.786;2023-08-31T11:21:51;99734.69;;;14.81;95.28
74327;BME280;62745;51.060;13.786;2023-08-31T11:24:17;99732.91;;;14.63;95.01
74327;BME280;62745;51.060;13.786;2023-08-31T11:26:42;99738.06;;;14.88;94.34
74327;BME280;62745;51.060;13.786;2023-08-31T11:29:08;99721.72;;;15.01;93.82
74327;BME280;62745;51.060;13.786;2023-08-31T11:31:38;99731.19;;;15.03;90.69
74327;BME280;62745;51.060;13.786;2023-08-31T11:34:07;99748.38;;;15.02;92.87
74327;BME280;62745;51.060;13.786;2023-08-31T11:36:36;99747.53;;;14.90;93.48
74327;BME280;62745;51.060;13.786;2023-08-31T11:39:03;99752.56;;;15.10;97.21
74327;BME280;62745;51.060;13.786;2023-08-31T11:41:35;99751.88;;;15.03;93.05
74327;BME280;62745;51.060;13.786;2023-08-31T11:44:03;99755.06;;;15.00;94.79
74327;BME280;62745;51.060;13.786;2023-08-31T11:46:30;99747.19;;;14.87;90.33
74327;BME280;62745;51.060;13.786;2023-08-31T11:48:56;99759.25;;;14.84;90.01
74327;BME280;62745;51.060;13.786;2023-08-31T11:51:22;99781.22;;;14.81;92.17
74327;BME280;62745;51.060;13.786;2023-08-31T11:53:47;99775.25;;;14.91;98.74
74327;BME280;62745;51.060;13.786;2023-08-31T11:56:13;99777.03;;;14.97;96.90
74327;BME280;62745;51.060;13.786;2023-08-31T11:58:42;99748.50;;;15.19;96.81
74327;BME280;62745;51.060;13.786;2023-08-31T12:01:07;99742.84;;;15.56;98.91
74327;BME280;62745;51.060;13.786;2023-08-31T12:03:42;99744.00;;;15.83;94.75
74327;BME280;62745;51.060;13.786;2023-08-31T12:06:09;99737.66;;;16.18;92.88
74327;BME280;62745;51.060;13.786;2023-08-31T12:08:36;99728.25;;;16.66;94.36
74327;BME280;62745;51.060;13.786;2023-08-31T12:11:02;99719.50;;;16.92;86.13
74327;BME280;62745;51.060;13.786;2023-08-31T12:13:27;99718.44;;;17.49;81.74
74327;BME280;62745;51.060;13.786;2023-08-31T12:15:54;99718.03;;;17.62;81.66
74327;BME280;62745;51.060;13.786;2023-08-31T12:18:19;99717.56;;;17.65;77.17
74327;BME280;62745;51.060;13.786;2023-08-31T12:20:51;99707.81;;;18.08;77.56
74327;BME280;62745;51.060;13.786;2023-08-31T12:23:18;99698.88;;;19.45;77.38
74327;BME280;62745;51.060;13.786;2023-08-31T12:25:53;99697.16;;;19.29;70.40
74327;BME280;62745;51.060;13.786;2023-08-31T12:28:21;99694.56;;;19.02;71.74
74327;BME280;62745;51.060;13.786;2023-08-31T12:30:52;99699.06;;;18.54;72.36
74327;BME280;62745;51.060;13.786;2023-08-31T12:33:18;99708.63;;;18.99;71.76
74327;BME280;62745;51.060;13.786;2023-08-31T12:35:44;99709.91;;;19.91;70.53
74327;BME280;62745;51.060;13.786;2023-08-31T12:38:09;99699.69;;;21.15;63.79
74327;BME280;62745;51.060;13.786;2023-08-31T12:40:35;99698.94;;;20.74;63.62
74327;BME280;62745;51.060;13.786;2023-08-31T12:43:01;99683.28;;;21.56;58.85
74327;BME280;62745;51.060;13.786;2023-08-31T12:45:27;99690.78;;;22.68;57.49
74327;BME280;62745;51.060;13.786;2023-08-31T12:47:52;99691.50;;;23.07;56.52
74327;BME280;62745;51.060;13.786;2023-08-31T12:50:18;99694.19;;;21.46;57.55
74327;BME280;62745;51.060;13.786;2023-08-31T12:52:43;99699.19;;;20.47;61.32
74327;BME280;62745;51.060;13.786;2023-08-31T12:55:14;99698.41;;;20.72;60.90
74327;BME280;62745;51.060;13.786;2023-08-31T12:57:40;99702.75;;;20.68;60.67
74327;BME280;62745;51.060;13.786;2023-08-31T13:00:07;99703.03;;;19.58;64.42
74327;BME280;62745;51.060;13.786;2023-08-31T13:02:42;99703.09;;;19.21;66.56
74327;BME280;62745;51.060;13.786;2023-08-31T13:05:08;99713.84;;;19.11;67.63
74327;BME280;62745;51.060;13.786;2023-08-31T13:07:36;99715.28;;;19.23;67.42
74327;BME280;62745;51.060;13.786;2023-08-31T13:10:05;99711.09;;;19.06;68.95
74327;BME280;62745;51.060;13.786;2023-08-31T13:12:31;99704.53;;;18.97;68.21
74327;BME280;62745;51.060;13.786;2023-08-31T13:14:58;99703.25;;;19.04;69.54
74327;BME280;62745;51.060;13.786;2023-08-31T13:17:23;99715.84;;;18.56;68.68
74327;BME280;62745;51.060;13.786;2023-08-31T13:19:52;99709.38;;;18.89;69.14
74327;BME280;62745;51.060;13.786;2023-08-31T13:22:18;99695.88;;;19.47;67.17
74327;BME280;62745;51.060;13.786;2023-08-31T13:24:43;99690.75;;;20.23;64.54
74327;BME280;62745;51.060;13.786;2023-08-31T13:27:08;99695.69;;;20.52;63.14
74327;BME280;62745;51.060;13.786;2023-08-31T13:29:33;99695.38;;;20.33;63.02
74327;BME280;62745;51.060;13.786;2023-08-31T13:31:59;99684.56;;;21.74;58.51
74327;BME280;62745;51.060;13.786;2023-08-31T13:34:24;99686.97;;;22.69;55.95
74327;BME280;62745;51.060;13.786;2023-08-31T13:36:49;99676.03;;;23.27;56.60
74327;BME280;62745;51.060;13.786;2023-08-31T13:39:14;99686.28;;;22.48;54.86
74327;BME280;62745;51.060;13.786;2023-08-31T13:41:41;99687.22;;;21.89;55.65
74327;BME280;62745;51.060;13.786;2023-08-31T13:44:07;99683.47;;;22.24;55.57
74327;BME280;62745;51.060;13.786;2023-08-31T13:46:32;99686.06;;;22.05;55.68
74327;BME280;62745;51.060;13.786;2023-08-31T13:48:57;99692.19;;;22.26;53.97
74327;BME280;62745;51.060;13.786;2023-08-31T13:51:22;99673.28;;;22.01;54.04
74327;BME280;62745;51.060;13.786;2023-08-31T13:53:48;99681.44;;;23.08;50.61
74327;BME280;62745;51.060;13.786;2023-08-31T13:56:13;99682.88;;;23.48;51.10
74327;BME280;62745;51.060;13.786;2023-08-31T13:58:38;99681.47;;;21.36;55.13
74327;BME280;62745;51.060;13.786;2023-08-31T14:01:04;99668.06;;;21.50;55.41
74327;BME280;62745;51.060;13.786;2023-08-31T14:03:30;99677.44;;;20.98;55.68
74327;BME280;62745;51.060;13.786;2023-08-31T14:05:55;99673.63;;;20.12;58.55
74327;BME280;62745;51.060;13.786;2023-08-31T14:08:20;99672.06;;;20.52;58.24
74327;BME280;62745;51.060;13.786;2023-08-31T14:10:46;99677.41;;;20.11;57.69
74327;BME280;62745;51.060;13.786;2023-08-31T14:13:11;99680.84;;;19.66;61.54
74327;BME280;62745;51.060;13.786;2023-08-31T14:15:36;99675.00;;;19.37;60.63
74327;BME280;62745;51.060;13.786;2023-08-31T14:18:05;99680.97;;;19.39;60.97
74327;BME280;62745;51.060;13.786;2023-08-31T14:20:30;99681.50;;;18.94;62.27
74327;BME280;62745;51.060;13.786;2023-08-31T14:22:55;99687.47;;;18.91;63.93
74327;BME280;62745;51.060;13.786;2023-08-31T14:25:20;99684.09;;;19.16;63.01
74327;BME280;62745;51.060;13.786;2023-08-31T14:27:49;99700.31;;;19.63;63.24
74327;BME280;62745;51.060;13.786;2023-08-31T14:30:14;99696.03;;;19.67;65.27
74327;BME280;62745;51.060;13.786;2023-08-31T14:32:39;99701.00;;;19.33;67.00
74327;BME280;62745;51.060;13.786;2023-08-31T14:35:05;99700.53;;;19.04;67.60
74327;BME280;62745;51.060;13.786;2023-08-31T14:37:31;99696.13;;;19.40;68.47
74327;BME280;62745;51.060;13.786;2023-08-31T14:39:57;99680.88;;;19.81;69.44
74327;BME280;62745;51.060;13.786;2023-08-31T14:42:22;99700.53;;;19.51;65.93
74327;BME280;62745;51.060;13.786;2023-08-31T14:45:05;99675.59;;;20.83;59.59
74327;BME280;62745;51.060;13.786;2023-08-31T14:47:30;99666.09;;;20.45;58.75
74327;BME280;62745;51.060;13.786;2023-08-31T14:49:56;99665.00;;;21.67;55.38
74327;BME280;62745;51.060;13.786;2023-08-31T14:52:21;99675.13;;;22.84;53.15
74327;BME280;62745;51.060;13.786;2023-08-31T14:54:47;99681.28;;;23.71;49.53
74327;BME280;62745;51.060;13.786;2023-08-31T14:57:13;99659.66;;;23.51;50.18
74327;BME280;62745;51.060;13.786;2023-08-31T14:59:38;99691.94;;;23.20;48.71
74327;BME280;62745;51.060;13.786;2023-08-31T15:02:06;99673.72;;;22.57;49.13
74327;BME280;62745;51.060;13.786;2023-08-31T15:04:32;99668.34;;;22.76;49.86